Time;durP1;ratioP1;P1;durP2;ratioP2;P2;SDS_P1;SDS_P2;PMS_P1;PMS_P2;Temp;Humidity;BMP_temperature;BMP_pressure;BME280_temperature;BME280_humidity;BME280_pressure;Samples;Min_cycle;Max_cycle;Signal;HPM_P1;HPM_P2
2023/09/19 00:02:06;;;;;;;3.53;2.60;;;;;;;17.94;73.78;95938.88;4912198;29;20936;-67
2023/09/19 00:04:32;;;;;;;4.40;3.33;;;;;;;17.83;73.86;95938.88;4912153;29;20777;-67
2023/09/19 00:06:58;;;;;;;3.00;2.07;;;;;;;17.86;74.59;95951.06;4912231;29;21251;-67
2023/09/19 00:09:26;;;;;;;3.40;2.50;;;;;;;17.83;74.28;95951.31;4911792;29;20522;-68
2023/09/19 00:11:51;;;;;;;3.90;2.63;;;;;;;17.83;74.60;95944.19;4912097;29;20572;-69
2023/09/19 00:14:17;;;;;;;5.40;3.07;;;;;;;17.74;74.75;95937.81;4912343;29;20511;-68
2023/09/19 00:16:42;;;;;;;5.13;2.70;;;;;;;17.76;74.52;95933.22;4912091;29;20259;-68
2023/09/19 00:19:08;;;;;;;7.47;3.23;;;;;;;17.77;74.66;95928.75;4911671;29;20183;-68
2023/09/19 00:21:35;;;;;;;4.60;2.40;;;;;;;17.78;74.31;95928.59;4911626;29;20187;-68
2023/09/19 00:24:01;;;;;;;4.40;2.27;;;;;;;17.73;74.67;95928.13;4911841;29;20412;-68
2023/09/19 00:26:30;;;;;;;4.77;2.20;;;;;;;17.82;73.69;95936.38;4911501;29;20423;-68
2023/09/19 00:28:57;;;;;;;5.30;2.40;;;;;;;17.78;73.49;95933.09;4911410;29;20214;-68
2023/09/19 00:31:25;;;;;;;7.70;3.17;;;;;;;17.74;73.22;95931.63;4910457;29;20968;-68
2023/09/19 00:33:51;;;;;;;2.70;2.13;;;;;;;17.65;73.84;95927.09;4911757;29;20523;-68
2023/09/19 00:36:18;;;;;;;5.20;3.23;;;;;;;17.68;73.90;95932.13;4911404;29;20455;-67
2023/09/19 00:38:45;;;;;;;2.77;2.07;;;;;;;17.68;73.91;95930.31;4911142;29;20433;-68
2023/09/19 00:41:12;;;;;;;11.33;3.10;;;;;;;17.62;73.98;95920.19;4911374;29;20428;-68
2023/09/19 00:43:39;;;;;;;7.20;2.43;;;;;;;17.61;73.98;95920.31;4911084;29;20408;-66
2023/09/19 00:46:06;;;;;;;4.20;2.00;;;;;;;17.73;73.79;95914.03;4911109;29;20420;-67
2023/09/19 00:48:31;;;;;;;6.43;2.70;;;;;;;17.63;73.99;95918.41;4910650;29;20503;-67
2023/09/19 00:51:04;;;;;;;3.77;2.47;;;;;;;17.65;74.05;95913.81;4910883;29;20558;-66
2023/09/19 00:53:31;;;;;;;2.97;2.23;;;;;;;17.52;74.93;95921.91;4911113;29;20183;-68
2023/09/19 00:55:56;;;;;;;5.20;2.53;;;;;;;17.52;74.83;95920.06;4911051;29;20499;-69
2023/09/19 00:58:22;;;;;;;4.33;2.13;;;;;;;17.65;74.31;95924.44;4910862;29;20606;-68
2023/09/19 01:00:50;;;;;;;2.63;1.80;;;;;;;17.64;74.67;95923.56;4911286;29;20729;-68
2023/09/19 01:03:18;;;;;;;4.30;3.00;;;;;;;17.69;74.44;95924.06;4911365;29;20765;-67
2023/09/19 01:05:43;;;;;;;5.40;2.60;;;;;;;17.60;75.09;95926.59;4911288;29;20479;-68
2023/09/19 01:08:11;;;;;;;5.70;3.00;;;;;;;17.56;75.05;95916.22;4910830;29;20416;-68
2023/09/19 01:10:46;;;;;;;6.83;3.73;;;;;;;17.59;75.12;95928.41;4911379;29;20216;-67
2023/09/19 01:13:21;;;;;;;5.13;3.00;;;;;;;17.49;75.71;95936.25;4911539;29;20415;-67
2023/09/19 01:16:11;;;;;;;11.87;3.00;;;;;;;17.49;75.81;95930.94;4911340;29;20419;-67
2023/09/19 01:18:49;;;;;;;7.53;2.87;;;;;;;17.54;75.64;95933.22;4910446;29;20412;-67
2023/09/19 01:21:54;;;;;;;8.40;3.37;;;;;;;17.51;75.87;95936.13;4910518;29;20518;-67
2023/09/19 01:24:47;;;;;;;3.53;2.67;;;;;;;17.69;75.32;95947.94;4910779;29;20427;-67
2023/09/19 01:27:52;;;;;;;3.30;2.50;;;;;;;17.59;75.64;95948.78;4910838;29;20418;-67
2023/09/19 01:30:22;;;;;;;3.60;2.27;;;;;;;17.65;75.49;95950.97;4909990;29;20471;-67
2023/09/19 01:32:52;;;;;;;5.10;3.10;;;;;;;17.62;75.86;95954.69;4910617;29;20396;-66
2023/09/19 01:35:18;;;;;;;9.50;3.63;;;;;;;17.59;75.67;95962.06;4912132;29;20415;-68
2023/09/19 01:37:44;;;;;;;4.20;3.27;;;;;;;17.64;75.40;95966.03;4910216;29;20408;-67
2023/09/19 01:40:16;;;;;;;4.40;2.90;;;;;;;17.63;75.28;95958.19;4910227;29;20442;-67
2023/09/19 01:43:06;;;;;;;5.70;3.37;;;;;;;17.64;75.28;95960.72;4910248;29;20175;-67
2023/09/19 01:45:53;;;;;;;5.60;3.33;;;;;;;17.54;75.44;95955.28;4910594;29;20511;-66
2023/09/19 01:48:55;;;;;;;4.30;2.83;;;;;;;17.58;75.17;95965.69;4910172;29;20415;-67
2023/09/19 01:51:40;;;;;;;6.47;3.63;;;;;;;17.54;75.28;95968.56;4910370;29;21020;-67
2023/09/19 01:54:20;;;;;;;5.00;3.17;;;;;;;17.50;75.44;95968.91;4900252;29;20428;-67
2023/09/19 01:56:59;;;;;;;5.10;3.00;;;;;;;17.49;75.46;95968.09;4910278;29;20419;-67
2023/09/19 01:59:31;;;;;;;5.37;3.40;;;;;;;17.49;75.66;95975.19;4909968;29;20450;-68
2023/09/19 02:01:58;;;;;;;7.03;3.10;;;;;;;17.45;75.42;95974.59;4909977;29;20407;-68
2023/09/19 02:04:23;;;;;;;5.30;3.10;;;;;;;17.46;75.63;95970.97;4910060;29;20411;-67
2023/09/19 02:06:48;;;;;;;4.90;4.23;;;;;;;17.47;75.45;95975.31;4909976;29;20504;-67
2023/09/19 02:09:15;;;;;;;7.90;3.53;;;;;;;17.43;75.93;95976.50;4909656;29;20230;-67
2023/09/19 02:11:41;;;;;;;11.50;3.70;;;;;;;17.49;75.34;95983.16;4910018;29;20310;-68
2023/09/19 02:14:08;;;;;;;5.70;4.03;;;;;;;17.46;75.52;95978.09;4909964;29;20425;-67
2023/09/19 02:16:34;;;;;;;4.20;3.43;;;;;;;17.46;75.69;95976.28;4909961;29;20959;-68
2023/09/19 02:19:00;;;;;;;5.33;3.30;;;;;;;17.50;75.25;95976.88;4909435;29;20514;-68
2023/09/19 02:21:29;;;;;;;5.50;3.20;;;;;;;17.43;76.12;95979.16;4909592;29;20187;-67
2023/09/19 02:23:55;;;;;;;5.10;3.77;;;;;;;17.32;76.24;95982.66;4909782;29;20187;-67
2023/09/19 02:26:20;;;;;;;8.40;4.40;;;;;;;17.24;76.35;95978.91;4909832;29;21102;-67
2023/09/19 02:28:45;;;;;;;4.70;3.70;;;;;;;17.43;75.84;95980.97;4909529;29;20210;-68
2023/09/19 02:31:11;;;;;;;6.43;3.30;;;;;;;17.41;75.65;95981.13;4909687;29;20207;-67
2023/09/19 02:33:37;;;;;;;5.73;3.47;;;;;;;17.36;76.33;95980.59;4909577;29;20179;-68
2023/09/19 02:36:05;;;;;;;8.17;3.50;;;;;;;17.44;75.78;95980.88;4909746;29;20183;-68
2023/09/19 02:38:31;;;;;;;4.30;3.40;;;;;;;17.42;75.83;95987.25;4909558;29;20216;-67
2023/09/19 02:40:56;;;;;;;5.47;3.80;;;;;;;17.44;75.53;95988.81;4909854;29;20941;-66
2023/09/19 02:43:23;;;;;;;5.27;3.17;;;;;;;17.47;75.45;95990.38;4910111;29;20172;-67
2023/09/19 02:45:55;;;;;;;13.70;4.57;;;;;;;17.44;75.64;95988.00;4910147;29;20258;-67
2023/09/19 02:48:20;;;;;;;12.80;4.20;;;;;;;17.53;75.20;95989.94;4909727;29;20929;-68
2023/09/19 02:50:49;;;;;;;12.87;4.53;;;;;;;17.47;75.36;95993.03;4909936;29;20467;-67
2023/09/19 02:53:14;;;;;;;7.80;3.77;;;;;;;17.27;76.49;96002.56;4910088;29;20275;-67
2023/09/19 02:55:40;;;;;;;4.17;3.60;;;;;;;17.33;76.02;96004.72;4912550;29;20416;-66
2023/09/19 02:58:07;;;;;;;5.80;3.20;;;;;;;17.41;75.59;95993.50;4913202;29;20176;-68
2023/09/19 03:00:35;;;;;;;5.17;3.63;;;;;;;17.45;75.29;96006.41;4913198;29;20192;-68
2023/09/19 03:03:02;;;;;;;7.33;3.50;;;;;;;17.46;75.36;96005.47;4913152;29;20415;-68
2023/09/19 03:05:30;;;;;;;4.60;3.07;;;;;;;17.41;75.70;96010.28;4913056;29;20849;-68
2023/09/19 03:07:56;;;;;;;7.00;4.20;;;;;;;17.41;75.60;96005.00;4912657;29;20423;-68
2023/09/19 03:10:21;;;;;;;5.00;3.43;;;;;;;17.48;75.31;96006.19;4913114;29;20469;-67
2023/09/19 03:12:47;;;;;;;6.00;4.57;;;;;;;17.60;74.41;96006.19;4913728;29;20179;-68
2023/09/19 03:15:15;;;;;;;5.90;3.50;;;;;;;17.49;74.82;96007.88;4913217;29;20263;-68
2023/09/19 03:17:51;;;;;;;10.07;4.10;;;;;;;17.45;74.96;96009.06;4912871;29;20407;-67
2023/09/19 03:20:17;;;;;;;4.90;2.93;;;;;;;17.58;74.62;96010.78;4912783;29;20443;-68
2023/09/19 03:22:43;;;;;;;5.80;3.27;;;;;;;17.47;74.80;96012.44;4913384;29;20411;-67
2023/09/19 03:25:11;;;;;;;6.43;3.00;;;;;;;17.55;74.49;96012.72;4913636;29;20172;-67
2023/09/19 03:27:37;;;;;;;4.77;3.23;;;;;;;17.52;74.37;96009.44;4912902;29;20448;-67
2023/09/19 03:30:08;;;;;;;8.50;3.70;;;;;;;17.44;74.82;96014.50;4912648;29;20443;-67
2023/09/19 03:32:37;;;;;;;5.53;3.00;;;;;;;17.47;74.79;96012.44;4912778;29;20427;-67
2023/09/19 03:35:06;;;;;;;6.10;3.07;;;;;;;17.38;74.91;96007.84;4912603;29;20412;-68
2023/09/19 03:37:33;;;;;;;7.23;3.73;;;;;;;17.38;74.96;96013.16;4912479;29;20435;-68
2023/09/19 03:39:58;;;;;;;7.10;3.93;;;;;;;17.38;75.08;96017.63;4912464;29;20432;-68
2023/09/19 03:42:26;;;;;;;7.43;3.23;;;;;;;17.36;74.94;96004.47;4912504;29;20427;-67
2023/09/19 03:44:52;;;;;;;7.17;3.50;;;;;;;17.32;74.93;96013.66;4912647;29;20179;-67
2023/09/19 03:47:18;;;;;;;4.97;3.63;;;;;;;17.35;75.01;96018.72;4912265;29;20455;-69
2023/09/19 03:49:44;;;;;;;9.90;3.93;;;;;;;17.29;75.19;96019.16;4912120;29;20231;-68
2023/09/19 03:52:09;;;;;;;5.87;3.70;;;;;;;17.34;74.82;96019.69;4913763;29;20495;-67
2023/09/19 03:54:35;;;;;;;6.80;3.47;;;;;;;17.33;75.09;96010.88;4927995;29;20217;-68
2023/09/19 03:57:00;;;;;;;5.03;3.43;;;;;;;17.33;74.75;96010.88;4925378;29;20183;-68
2023/09/19 03:59:27;;;;;;;5.70;3.97;;;;;;;17.30;75.03;96005.81;4917935;29;20207;-67
2023/09/19 04:01:55;;;;;;;6.67;4.33;;;;;;;17.32;74.81;96009.19;4916646;29;20164;-68
2023/09/19 04:04:21;;;;;;;4.90;3.97;;;;;;;17.25;75.30;96012.44;4913137;29;20424;-67
2023/09/19 04:06:46;;;;;;;5.90;3.73;;;;;;;17.12;75.57;96018.66;4912141;29;20778;-67
2023/09/19 04:09:12;;;;;;;6.30;3.40;;;;;;;17.08;75.76;96011.06;4911904;29;20176;-67
2023/09/19 04:11:38;;;;;;;7.17;3.40;;;;;;;17.12;75.68;96020.47;4912135;29;20247;-67
2023/09/19 04:14:04;;;;;;;13.20;4.30;;;;;;;17.12;75.77;96013.34;4912084;29;20567;-68
2023/09/19 04:16:29;;;;;;;6.33;3.57;;;;;;;17.19;75.86;96018.19;4913468;29;20303;-68
2023/09/19 04:18:55;;;;;;;12.63;4.33;;;;;;;17.21;75.49;96017.13;4911744;29;20416;-67
2023/09/19 04:21:20;;;;;;;6.33;3.80;;;;;;;17.18;75.87;96021.81;4911942;29;20183;-68
2023/09/19 04:23:45;;;;;;;6.07;3.30;;;;;;;17.16;75.58;96019.28;4911945;29;20633;-68
2023/09/19 04:26:12;;;;;;;7.47;3.37;;;;;;;17.18;75.38;96029.78;4912369;29;20202;-68
2023/09/19 04:28:38;;;;;;;7.87;3.30;;;;;;;17.26;75.34;96024.72;4911822;29;20184;-67
2023/09/19 04:31:03;;;;;;;7.70;4.23;;;;;;;17.24;75.09;96031.94;4911933;29;20470;-67
2023/09/19 04:33:29;;;;;;;6.27;4.17;;;;;;;17.14;75.35;96029.16;4912065;29;20419;-68
2023/09/19 04:35:55;;;;;;;13.93;4.83;;;;;;;17.19;75.23;96032.28;4884734;29;20763;-67
2023/09/19 04:38:21;;;;;;;7.07;3.83;;;;;;;17.00;75.97;96032.84;4893726;29;20175;-67
2023/09/19 04:40:47;;;;;;;9.67;4.17;;;;;;;17.19;75.50;96034.09;4910701;29;20487;-68
2023/09/19 04:43:12;;;;;;;10.40;3.93;;;;;;;17.23;75.09;96041.72;4911127;29;20179;-67
2023/09/19 04:45:39;;;;;;;15.03;4.47;;;;;;;17.30;74.89;96044.75;4910177;29;20237;-67
2023/09/19 04:48:06;;;;;;;10.17;4.63;;;;;;;17.22;74.72;96039.16;4905865;29;20188;-67
2023/09/19 04:50:34;;;;;;;31.23;7.53;;;;;;;17.27;74.63;96039.69;4910029;29;20463;-68
2023/09/19 04:53:00;;;;;;;9.17;3.73;;;;;;;17.26;74.59;96036.16;4911392;29;20423;-67
2023/09/19 04:55:26;;;;;;;6.73;3.67;;;;;;;17.22;74.66;96042.69;4911456;29;20471;-68
2023/09/19 04:57:55;;;;;;;8.00;3.23;;;;;;;17.27;74.47;96043.19;4911432;29;20834;-67
2023/09/19 05:00:24;;;;;;;10.83;3.47;;;;;;;17.20;74.50;96057.88;4912837;29;20195;-68
2023/09/19 05:02:56;;;;;;;11.80;4.00;;;;;;;17.31;74.42;96054.38;4902461;29;20840;-67
2023/09/19 05:05:22;;;;;;;3.40;2.53;;;;;;;17.16;74.90;96060.88;4896871;29;20464;-68
2023/09/19 05:07:48;;;;;;;5.90;3.20;;;;;;;17.24;74.70;96064.59;4903226;29;20421;-66
2023/09/19 05:10:14;;;;;;;5.70;3.60;;;;;;;17.24;74.66;96061.94;4900776;29;20467;-66
2023/09/19 05:12:41;;;;;;;6.97;3.63;;;;;;;17.19;74.67;96060.63;4892057;29;20689;-68
2023/09/19 05:15:08;;;;;;;15.70;4.90;;;;;;;17.23;74.56;96070.88;4889891;29;20540;-65
2023/09/19 05:17:35;;;;;;;8.00;3.57;;;;;;;17.22;74.68;96066.56;4896578;29;20795;-66
2023/09/19 05:20:14;;;;;;;9.50;3.37;;;;;;;17.24;74.41;96058.47;4907548;29;20453;-67
2023/09/19 05:22:40;;;;;;;11.33;4.13;;;;;;;17.33;74.10;96063.06;4895550;29;20417;-68
2023/09/19 05:25:06;;;;;;;17.50;4.40;;;;;;;17.32;73.88;96059.56;4908655;29;20442;-67
2023/09/19 05:27:33;;;;;;;12.83;4.10;;;;;;;17.27;74.43;96058.25;4908120;29;20230;-67
2023/09/19 05:29:59;;;;;;;17.97;4.60;;;;;;;17.24;74.60;96053.16;4907474;29;20455;-67
2023/09/19 05:32:24;;;;;;;9.93;4.10;;;;;;;17.30;74.03;96065.97;4908528;29;20454;-66
2023/09/19 05:34:52;;;;;;;9.97;4.10;;;;;;;17.30;74.17;96071.28;4902654;29;20199;-67
2023/09/19 05:37:18;;;;;;;24.17;6.20;;;;;;;17.26;74.23;96073.28;4906587;29;20187;-68
2023/09/19 05:39:43;;;;;;;8.67;3.97;;;;;;;17.38;73.54;96070.69;4907500;29;20534;-67
2023/09/19 05:42:09;;;;;;;13.90;4.20;;;;;;;17.50;72.98;96077.69;4909801;29;20182;-67
2023/09/19 05:44:35;;;;;;;9.40;3.70;;;;;;;17.57;72.69;96081.56;4912002;29;20179;-70
2023/09/19 05:47:02;;;;;;;7.30;3.03;;;;;;;17.58;72.33;96082.44;4908085;29;20751;-68
2023/09/19 05:49:28;;;;;;;13.63;4.20;;;;;;;17.53;72.78;96096.06;4907099;29;20984;-67
2023/09/19 05:51:55;;;;;;;3.67;2.97;;;;;;;17.53;72.35;96091.56;4899722;29;20468;-66
2023/09/19 05:54:20;;;;;;;19.27;4.30;;;;;;;17.78;71.55;96100.28;4888731;29;20295;-68
2023/09/19 05:56:46;;;;;;;12.53;3.20;;;;;;;18.14;70.10;96095.75;4904251;29;20518;-66
2023/09/19 05:59:15;;;;;;;15.33;4.23;;;;;;;18.07;70.53;96103.38;4905279;29;20214;-66
2023/09/19 06:01:44;;;;;;;12.73;3.70;;;;;;;17.86;70.80;96102.38;4890080;29;20467;-68
2023/09/19 06:04:09;;;;;;;10.30;2.87;;;;;;;17.75;71.17;96100.53;4905575;29;20443;-65
2023/09/19 06:06:38;;;;;;;8.63;2.80;;;;;;;18.48;72.42;96098.38;4907071;29;21057;-66
2023/09/19 06:09:05;;;;;;;19.43;4.83;;;;;;;18.86;69.74;96089.97;4905635;29;20207;-66
2023/09/19 06:11:34;;;;;;;11.13;3.37;;;;;;;19.03;68.34;96089.44;4905466;29;20463;-65
2023/09/19 06:14:00;;;;;;;6.03;3.00;;;;;;;19.55;66.64;96086.88;4906245;29;20439;-66
2023/09/19 06:16:25;;;;;;;7.90;2.53;;;;;;;19.71;65.75;96090.94;4906539;29;20519;-65
2023/09/19 06:18:52;;;;;;;7.80;3.50;;;;;;;20.89;60.40;96081.41;4904627;29;20179;-66
2023/09/19 06:21:18;;;;;;;7.90;2.87;;;;;;;22.66;54.55;96101.47;4907013;29;20204;-66
2023/09/19 06:23:43;;;;;;;11.40;3.10;;;;;;;23.85;51.54;96088.72;4889893;29;20430;-66
2023/09/19 06:26:09;;;;;;;6.93;2.87;;;;;;;24.88;47.84;96092.28;4907104;29;20175;-64
2023/09/19 06:28:34;;;;;;;6.37;2.10;;;;;;;25.00;46.52;96097.34;4907426;29;20183;-66
2023/09/19 06:31:02;;;;;;;6.50;2.57;;;;;;;23.41;49.98;96094.91;4910934;29;20210;-65
2023/09/19 06:33:31;;;;;;;2.77;2.20;;;;;;;22.16;54.02;96113.34;4910923;29;20204;-65
2023/09/19 06:36:00;;;;;;;5.20;1.80;;;;;;;20.72;57.58;96111.44;4909290;29;20443;-67
2023/09/19 06:38:25;;;;;;;3.97;2.20;;;;;;;19.78;60.66;96118.72;4910895;29;20438;-66
2023/09/19 06:40:50;;;;;;;4.43;2.07;;;;;;;19.29;62.67;96120.16;4910046;29;21108;-66
2023/09/19 06:43:16;;;;;;;15.53;3.10;;;;;;;19.11;63.73;96117.19;4908609;29;20192;-68
2023/09/19 06:45:42;;;;;;;14.57;2.90;;;;;;;19.48;62.59;96117.66;4905938;29;20306;-67
2023/09/19 06:48:09;;;;;;;8.40;2.70;;;;;;;19.19;63.14;96110.28;4910080;29;20290;-67
2023/09/19 06:50:35;;;;;;;3.70;2.10;;;;;;;19.18;63.26;96129.03;4911813;29;20586;-67
2023/09/19 06:53:02;;;;;;;4.43;2.00;;;;;;;19.78;61.99;96116.06;4908837;29;20450;-67
2023/09/19 06:55:30;;;;;;;3.20;2.50;;;;;;;20.63;58.25;96117.59;4910756;29;20443;-67
2023/09/19 06:57:56;;;;;;;4.73;2.10;;;;;;;21.24;57.19;96117.41;4910430;29;20833;-66
2023/09/19 07:00:22;;;;;;;3.63;2.20;;;;;;;21.36;56.54;96116.28;4910070;29;20459;-67
2023/09/19 07:03:04;;;;;;;3.47;2.30;;;;;;;20.80;58.16;96122.25;4911049;29;20271;-67
2023/09/19 07:05:31;;;;;;;4.77;2.20;;;;;;;20.40;59.32;96128.41;4911786;29;21100;-67
2023/09/19 07:08:00;;;;;;;3.47;1.87;;;;;;;20.09;60.43;96136.41;4911259;29;20454;-67
2023/09/19 07:10:27;;;;;;;5.80;2.63;;;;;;;19.80;61.58;96141.59;4911328;29;20786;-67
2023/09/19 07:13:10;;;;;;;6.40;1.93;;;;;;;20.30;60.26;96151.53;4909109;29;20435;-67
2023/09/19 07:15:38;;;;;;;4.53;2.20;;;;;;;21.32;56.97;96141.53;4910484;29;20909;-66
2023/09/19 07:18:05;;;;;;;5.20;2.73;;;;;;;21.59;56.00;96132.03;4910023;29;20552;-67
2023/09/19 07:20:32;;;;;;;4.97;2.27;;;;;;;21.23;57.10;96139.72;4910009;29;20563;-68
2023/09/19 07:22:59;;;;;;;14.93;3.33;;;;;;;20.71;58.63;96147.06;4910998;29;20434;-67
2023/09/19 07:25:25;;;;;;;7.37;2.70;;;;;;;20.66;58.80;96146.63;4911548;29;20427;-67
2023/09/19 07:27:51;;;;;;;5.00;2.43;;;;;;;20.50;58.83;96150.63;4911801;29;20431;-67
2023/09/19 07:30:17;;;;;;;20.30;3.63;;;;;;;20.54;59.18;96142.34;4911114;29;20791;-67
2023/09/19 07:32:42;;;;;;;10.60;1.93;;;;;;;21.22;57.36;96147.88;4911224;29;20522;-67
2023/09/19 07:35:08;;;;;;;15.10;3.50;;;;;;;21.25;56.83;96148.44;4910896;29;20211;-66
2023/09/19 07:37:34;;;;;;;4.63;2.17;;;;;;;20.87;58.13;96147.41;4908107;29;20318;-65
2023/09/19 07:40:00;;;;;;;5.23;2.67;;;;;;;20.71;58.43;96152.41;4911055;29;20459;-67
2023/09/19 07:42:26;;;;;;;5.70;2.57;;;;;;;20.44;59.23;96153.81;4896951;29;20611;-67
2023/09/19 07:44:53;;;;;;;11.03;2.43;;;;;;;20.55;59.23;96157.38;4911111;29;20451;-66
2023/09/19 07:47:20;;;;;;;20.67;3.40;;;;;;;20.87;58.17;96154.56;4909313;29;20451;-68
2023/09/19 07:49:49;;;;;;;13.83;2.57;;;;;;;20.94;58.17;96161.88;4910568;29;20463;-66
2023/09/19 07:52:15;;;;;;;8.00;2.80;;;;;;;21.21;57.28;96164.84;4909960;29;20475;-67
2023/09/19 07:54:41;;;;;;;10.93;2.80;;;;;;;21.17;56.64;96168.81;4906680;29;20448;-68
2023/09/19 07:57:07;;;;;;;5.30;2.70;;;;;;;21.14;56.76;96173.44;4909483;29;20454;-69
2023/09/19 07:59:32;;;;;;;6.23;2.50;;;;;;;20.68;58.20;96176.69;4900278;29;20665;-69
2023/09/19 08:01:58;;;;;;;13.43;2.60;;;;;;;20.49;59.24;96180.91;4910351;29;20179;-66
2023/09/19 08:04:25;;;;;;;17.60;2.40;;;;;;;20.37;59.31;96181.16;4910145;29;20202;-67
2023/09/19 08:06:51;;;;;;;27.87;4.30;;;;;;;20.56;59.76;96175.09;4909144;29;20188;-68
2023/09/19 08:09:20;;;;;;;12.10;1.80;;;;;;;20.54;59.75;96169.03;4908702;29;20554;-66
2023/09/19 08:11:46;;;;;;;5.80;2.20;;;;;;;20.52;59.41;96175.31;4892358;29;20470;-68
2023/09/19 08:14:14;;;;;;;42.20;3.10;;;;;;;20.62;59.65;96172.75;4900735;29;20527;-67
2023/09/19 08:16:39;;;;;;;8.63;2.53;;;;;;;20.81;58.58;96168.44;4911371;29;20467;-66
2023/09/19 08:19:05;;;;;;;9.03;2.70;;;;;;;21.26;57.06;96175.94;4912304;29;20526;-66
2023/09/19 08:21:31;;;;;;;5.73;3.10;;;;;;;21.64;56.51;96174.31;4920820;29;20195;-71
2023/09/19 08:23:57;;;;;;;5.87;2.00;;;;;;;22.03;54.73;96177.78;4912248;29;20198;-70
2023/09/19 08:26:24;;;;;;;14.10;2.60;;;;;;;22.32;53.45;96176.91;4909881;29;20506;-70
2023/09/19 08:28:51;;;;;;;13.90;2.30;;;;;;;22.76;51.49;96177.16;4909105;29;20214;-73
2023/09/19 08:31:16;;;;;;;5.23;1.43;;;;;;;23.06;50.48;96172.53;4908128;29;20483;-69
2023/09/19 08:33:44;;;;;;;6.57;1.80;;;;;;;23.18;49.53;96168.66;4906623;29;20447;-70
2023/09/19 08:36:10;;;;;;;24.00;3.63;;;;;;;23.39;53.73;96176.41;4908675;29;20610;-69
2023/09/19 08:38:35;;;;;;;30.00;3.20;;;;;;;23.07;50.88;96179.56;4908747;29;20538;-69
2023/09/19 08:41:06;;;;;;;13.00;2.93;;;;;;;22.97;51.77;96180.44;4908318;29;20716;-69
2023/09/19 08:43:33;;;;;;;3.70;1.70;;;;;;;22.54;52.13;96189.94;4908286;29;20358;-69
2023/09/19 08:46:20;;;;;;;5.00;1.57;;;;;;;22.24;52.42;96195.50;4903853;29;20417;-69
2023/09/19 08:48:54;;;;;;;5.70;1.60;;;;;;;21.94;52.09;96194.69;4909610;29;20446;-69
2023/09/19 08:51:45;;;;;;;7.20;1.53;;;;;;;21.67;53.32;96198.91;4900833;29;20467;-69
2023/09/19 08:54:32;;;;;;;3.20;1.50;;;;;;;21.56;53.26;96196.38;4905668;29;20455;-69
2023/09/19 08:57:07;;;;;;;5.40;1.70;;;;;;;21.50;54.14;96191.63;4908289;29;20455;-69
2023/09/19 08:59:35;;;;;;;2.73;1.63;;;;;;;21.44;53.84;96198.34;4907457;29;20466;-69
2023/09/19 09:02:00;;;;;;;6.93;1.83;;;;;;;21.44;53.35;96205.50;4902861;29;20449;-70
2023/09/19 09:04:27;;;;;;;11.30;2.13;;;;;;;21.24;53.26;96201.97;4909942;29;20518;-70
2023/09/19 09:06:54;;;;;;;7.60;2.10;;;;;;;21.31;53.51;96209.28;4909151;29;20191;-70
2023/09/19 09:09:20;;;;;;;4.77;1.83;;;;;;;21.30;53.09;96204.06;4908033;29;20491;-69
2023/09/19 09:11:48;;;;;;;2.47;1.70;;;;;;;21.30;52.66;96207.56;4907749;29;20507;-70
2023/09/19 09:14:13;;;;;;;5.97;1.97;;;;;;;21.31;52.87;96206.59;4908414;29;20440;-69
2023/09/19 09:16:39;;;;;;;2.67;1.63;;;;;;;21.26;53.46;96200.84;4905910;29;20523;-70
2023/09/19 09:19:05;;;;;;;2.63;1.37;;;;;;;21.09;53.20;96205.00;4902384;29;21016;-70
2023/09/19 09:21:35;;;;;;;3.87;1.60;;;;;;;20.90;53.28;96205.78;4909785;29;20187;-71
2023/09/19 09:24:25;;;;;;;3.10;1.57;;;;;;;20.84;53.51;96203.69;4909356;29;20198;-71
2023/09/19 09:26:52;;;;;;;8.93;1.80;;;;;;;20.85;53.00;96197.34;4891271;29;20998;-70
2023/09/19 09:29:41;;;;;;;3.00;1.60;;;;;;;20.78;53.55;96204.22;4897012;29;20448;-73
2023/09/19 09:32:38;;;;;;;20.60;3.80;;;;;;;20.75;53.71;96204.50;4909682;29;20569;-69
2023/09/19 09:35:09;;;;;;;7.50;2.13;;;;;;;20.62;53.80;96211.88;4907636;29;20941;-70
2023/09/19 09:37:38;;;;;;;3.60;1.60;;;;;;;20.78;53.60;96198.88;4908465;29;20442;-70
2023/09/19 09:42:46;;;;;;;3.47;1.33;;;;;;;20.90;52.24;96210.28;4910112;29;20422;-70
2023/09/19 09:45:14;;;;;;;18.57;3.80;;;;;;;20.77;52.09;96221.22;4897420;29;21172;-70
2023/09/19 09:47:55;;;;;;;28.43;3.33;;;;;;;20.67;52.13;96214.97;4905977;29;20455;-71
2023/09/19 09:50:56;;;;;;;4.90;1.50;;;;;;;20.54;52.55;96215.19;4907319;29;20465;-71
2023/09/19 09:53:29;;;;;;;5.10;1.40;;;;;;;20.50;52.21;96225.28;4906312;29;20422;-71
2023/09/19 09:56:06;;;;;;;8.70;2.47;;;;;;;20.45;52.37;96213.31;4890927;29;20472;-70
2023/09/19 09:58:36;;;;;;;41.80;6.27;;;;;;;20.42;52.53;96219.75;4889947;29;20424;-70
2023/09/19 10:01:08;;;;;;;41.80;5.33;;;;;;;20.54;52.43;96219.66;4890282;29;20436;-71
2023/09/19 10:03:43;;;;;;;6.83;1.80;;;;;;;20.80;51.82;96220.94;4892083;29;20458;-71
2023/09/19 10:06:28;;;;;;;25.47;4.10;;;;;;;20.74;52.16;96226.81;4908897;29;20506;-70
2023/09/19 10:11:43;;;;;;;7.33;2.43;;;;;;;21.38;49.96;96222.03;4900779;29;20503;-70
2023/09/19 10:14:12;;;;;;;12.03;3.37;;;;;;;21.58;49.40;96218.44;4901159;29;20420;-71
2023/09/19 10:16:40;;;;;;;7.13;1.37;;;;;;;21.46;49.42;96225.75;4900044;29;20733;-70
2023/09/19 10:19:08;;;;;;;21.40;2.70;;;;;;;21.77;49.26;96220.28;4907066;29;20923;-71
2023/09/19 10:21:36;;;;;;;11.63;2.20;;;;;;;22.16;48.53;96222.94;4901400;29;20423;-69
2023/09/19 10:24:07;;;;;;;3.23;1.40;;;;;;;22.35;48.08;96222.09;4909034;29;20907;-70
2023/09/19 10:26:36;;;;;;;2.77;1.67;;;;;;;22.57;46.96;96223.56;4909529;29;20498;-70
2023/09/19 10:29:03;;;;;;;9.33;3.50;;;;;;;22.66;46.96;96221.84;4908422;29;20718;-70
2023/09/19 10:31:34;;;;;;;1.80;1.27;;;;;;;22.81;44.95;96223.03;4909483;29;20539;-70
2023/09/19 10:34:04;;;;;;;3.53;1.13;;;;;;;22.64;44.63;96218.47;4907431;29;20478;-72
2023/09/19 10:36:34;;;;;;;9.33;1.80;;;;;;;22.78;44.92;96216.16;4906107;29;20833;-71
2023/09/19 10:39:06;;;;;;;5.23;1.77;;;;;;;23.02;44.12;96221.00;4901448;29;20412;-71
2023/09/19 10:41:34;;;;;;;8.47;2.47;;;;;;;22.77;44.31;96209.13;4890418;29;20419;-70
2023/09/19 10:44:04;;;;;;;5.90;1.80;;;;;;;22.78;44.57;96201.94;4896927;29;20475;-69
2023/09/19 10:46:32;;;;;;;15.00;3.33;;;;;;;22.96;43.44;96204.66;4909147;29;20467;-69
2023/09/19 10:49:00;;;;;;;4.50;1.30;;;;;;;23.06;43.47;96207.34;4908173;29;20487;-71
2023/09/19 10:51:31;;;;;;;10.40;3.27;;;;;;;23.10;43.01;96214.06;4908942;29;20574;-70
2023/09/19 10:54:06;;;;;;;10.60;2.70;;;;;;;23.38;45.51;96210.34;4907999;29;20914;-68
2023/09/19 10:56:42;;;;;;;8.77;2.13;;;;;;;23.32;43.66;96215.50;4906148;29;20427;-72
2023/09/19 10:59:12;;;;;;;51.57;5.70;;;;;;;23.53;43.55;96199.09;4907044;29;21184;-68
2023/09/19 11:01:57;;;;;;;19.40;3.77;;;;;;;23.61;42.28;96202.72;4909987;29;20417;-70
2023/09/19 11:04:33;;;;;;;5.47;1.27;;;;;;;23.72;41.00;96193.63;4902368;29;20408;-70
2023/09/19 11:07:11;;;;;;;3.70;1.67;;;;;;;23.72;42.33;96217.72;4907104;29;20501;-72
2023/09/19 11:10:03;;;;;;;2.53;1.60;;;;;;;23.58;42.64;96204.88;4900931;29;20830;-70
2023/09/19 11:12:40;;;;;;;37.77;5.10;;;;;;;23.83;40.93;96201.44;4906090;29;20490;-71
2023/09/19 11:15:08;;;;;;;25.27;4.33;;;;;;;23.79;39.46;96193.88;4906801;29;20447;-71
2023/09/19 11:17:41;;;;;;;45.50;5.07;;;;;;;23.81;41.65;96199.91;4902253;29;20443;-70
2023/09/19 11:22:48;;;;;;;2.60;1.67;;;;;;;23.90;40.04;96198.16;4904436;29;20458;-69
2023/09/19 11:25:49;;;;;;;4.40;2.00;;;;;;;23.66;39.96;96199.59;4910984;29;20423;-70
2023/09/19 11:28:25;;;;;;;4.57;1.83;;;;;;;23.28;41.13;96198.88;4871268;29;20832;-70
2023/09/19 11:30:54;;;;;;;4.00;2.00;;;;;;;23.23;40.93;96193.13;4905689;29;20481;-71
2023/09/19 11:33:33;;;;;;;5.87;1.90;;;;;;;22.97;41.33;96188.47;4909289;29;20447;-71
2023/09/19 11:35:59;;;;;;;12.00;2.77;;;;;;;22.80;41.75;96190.09;4912363;29;20475;-71
2023/09/19 11:38:49;;;;;;;24.60;4.23;;;;;;;22.92;43.71;96188.06;4910580;29;21000;-68
2023/09/19 11:41:25;;;;;;;3.97;1.73;;;;;;;23.33;40.80;96179.69;4909591;29;20498;-70
2023/09/19 11:44:04;;;;;;;20.73;2.90;;;;;;;23.20;42.10;96180.88;4913038;29;20446;-70
2023/09/19 11:46:51;;;;;;;5.37;1.73;;;;;;;23.07;42.77;96182.25;4912291;29;20534;-71
2023/09/19 11:49:21;;;;;;;28.80;5.63;;;;;;;23.04;42.85;96172.69;4907544;29;20431;-70
2023/09/19 11:51:51;;;;;;;2.10;1.40;;;;;;;23.17;40.42;96165.16;4898486;29;20468;-72